sensor_id;sensor_type;location;lat;lon;timestamp;pressure;altitude;pressure_sealevel;temperature;humidity
20037;BME280;10179;42.640;23.312;2023-05-17T00:00:07;93124.28;;;19.06;57.23
20037;BME280;10179;42.640;23.312;2023-05-17T00:02:34;93124.72;;;18.94;57.33
20037;BME280;10179;42.640;23.312;2023-05-17T00:04:59;93135.00;;;18.82;57.59
20037;BME280;10179;42.640;23.312;2023-05-17T00:07:25;93137.53;;;18.73;57.75
20037;BME280;10179;42.640;23.312;2023-05-17T00:09:50;93132.31;;;18.63;57.95
20037;BME280;10179;42.640;23.312;2023-05-17T00:12:16;93128.72;;;18.54;58.31
20037;BME280;10179;42.640;23.312;2023-05-17T00:14:41;93130.88;;;18.52;58.61
20037;BME280;10179;42.640;23.312;2023-05-17T00:17:06;93095.28;;;18.29;58.50
20037;BME280;10179;42.640;23.312;2023-05-17T00:19:32;92766.78;;;16.10;58.65
20037;BME280;10179;42.640;23.312;2023-05-17T00:21:57;93127.72;;;18.50;58.51
20037;BME280;10179;42.640;23.312;2023-05-17T00:24:23;93120.81;;;18.49;58.68
20037;BME280;10179;42.640;23.312;2023-05-17T00:26:48;93126.63;;;18.51;58.73
20037;BME280;10179;42.640;23.312;2023-05-17T00:29:13;93126.63;;;18.51;58.54
20037;BME280;10179;42.640;23.312;2023-05-17T00:31:39;93130.88;;;18.52;58.42
20037;BME280;10179;42.640;23.312;2023-05-17T00:34:05;93135.81;;;18.40;58.39
20037;BME280;10179;42.640;23.312;2023-05-17T00:36:30;93070.97;;;18.17;58.30
20037;BME280;10179;42.640;23.312;2023-05-17T00:38:56;93125.41;;;18.43;58.27
20037;BME280;10179;42.640;23.312;2023-05-17T00:41:21;93116.91;;;18.22;58.09
20037;BME280;10179;42.640;23.312;2023-05-17T00:43:46;93015.09;;;17.55;58.11
20037;BME280;10179;42.640;23.312;2023-05-17T00:46:12;93099.03;;;18.04;58.50
20037;BME280;10179;42.640;23.312;2023-05-17T00:48:38;93126.78;;;18.17;58.68
20037;BME280;10179;42.640;23.312;2023-05-17T00:51:04;93134.19;;;18.20;58.71
20037;BME280;10179;42.640;23.312;2023-05-17T00:53:30;93139.84;;;18.13;58.48
20037;BME280;10179;42.640;23.312;2023-05-17T00:55:55;93145.75;;;18.10;58.64
20037;BME280;10179;42.640;23.312;2023-05-17T00:58:21;93137.28;;;18.08;58.82
20037;BME280;10179;42.640;23.312;2023-05-17T01:00:49;93142.59;;;18.08;59.17
20037;BME280;10179;42.640;23.312;2023-05-17T01:03:15;93063.41;;;17.57;59.03
20037;BME280;10179;42.640;23.312;2023-05-17T01:05:40;93146.03;;;18.08;59.05
20037;BME280;10179;42.640;23.312;2023-05-17T01:08:06;93140.75;;;17.79;59.05
20037;BME280;10179;42.640;23.312;2023-05-17T01:10:53;93131.63;;;17.91;58.81
20037;BME280;10179;42.640;23.312;2023-05-17T01:13:32;93124.94;;;17.93;59.25
20037;BME280;10179;42.640;23.312;2023-05-17T01:16:54;93136.38;;;17.94;58.91
20037;BME280;10179;42.640;23.312;2023-05-17T01:19:06;93128.09;;;17.95;59.05
20037;BME280;10179;42.640;23.312;2023-05-17T01:21:58;93131.56;;;17.96;58.98
20037;BME280;10179;42.640;23.312;2023-05-17T01:24:33;93142.75;;;17.93;58.87
20037;BME280;10179;42.640;23.312;2023-05-17T01:27:01;93134.84;;;17.87;58.96
20037;BME280;10179;42.640;23.312;2023-05-17T01:29:29;93173.66;;;17.83;58.70
20037;BME280;10179;42.640;23.312;2023-05-17T01:31:56;93125.94;;;17.73;58.85
20037;BME280;10179;42.640;23.312;2023-05-17T01:34:24;93124.38;;;17.67;58.91
20037;BME280;10179;42.640;23.312;2023-05-17T01:36:50;93108.75;;;17.65;58.99
20037;BME280;10179;42.640;23.312;2023-05-17T01:39:15;93126.97;;;17.77;58.88
20037;BME280;10179;42.640;23.312;2023-05-17T01:41:42;93130.72;;;17.76;59.02
20037;BME280;10179;42.640;23.312;2023-05-17T01:46:45;93123.28;;;17.73;58.79
20037;BME280;10179;42.640;23.312;2023-05-17T01:49:23;92754.97;;;15.34;58.70
20037;BME280;10179;42.640;23.312;2023-05-17T01:54:31;93118.56;;;17.65;58.61
20037;BME280;10179;42.640;23.312;2023-05-17T01:57:03;93017.53;;;16.98;58.61
20037;BME280;10179;42.640;23.312;2023-05-17T01:59:30;92967.19;;;16.64;58.58
20037;BME280;10179;42.640;23.312;2023-05-17T02:01:59;93109.06;;;17.59;58.77
20037;BME280;10179;42.640;23.312;2023-05-17T02:04:31;93122.91;;;17.56;58.36
20037;BME280;10179;42.640;23.312;2023-05-17T02:06:57;92985.75;;;16.64;58.36
20037;BME280;10179;42.640;23.312;2023-05-17T02:09:22;93093.13;;;17.35;58.22
20037;BME280;10179;42.640;23.312;2023-05-17T02:11:48;93157.53;;;17.46;58.15
20037;BME280;10179;42.640;23.312;2023-05-17T02:14:13;93105.38;;;17.31;57.98
20037;BME280;10179;42.640;23.312;2023-05-17T02:16:38;93115.13;;;17.35;58.18
20037;BME280;10179;42.640;23.312;2023-05-17T02:19:04;92780.75;;;15.18;58.34
20037;BME280;10179;42.640;23.312;2023-05-17T02:21:30;93125.84;;;17.25;58.42
20037;BME280;10179;42.640;23.312;2023-05-17T02:23:55;93091.97;;;17.12;58.12
20037;BME280;10179;42.640;23.312;2023-05-17T02:26:21;93094.94;;;17.05;58.45
20037;BME280;10179;42.640;23.312;2023-05-17T02:28:46;93128.72;;;17.00;58.51
20037;BME280;10179;42.640;23.312;2023-05-17T02:31:12;93107.63;;;17.13;58.28
20037;BME280;10179;42.640;23.312;2023-05-17T02:33:37;93101.53;;;17.13;58.20
20037;BME280;10179;42.640;23.312;2023-05-17T02:36:03;93107.91;;;17.12;58.63
20037;BME280;10179;42.640;23.312;2023-05-17T02:38:28;93065.13;;;16.84;58.30
20037;BME280;10179;42.640;23.312;2023-05-17T02:40:54;92964.09;;;16.17;58.61
20037;BME280;10179;42.640;23.312;2023-05-17T02:43:19;93117.47;;;17.13;58.45
20037;BME280;10179;42.640;23.312;2023-05-17T02:45:44;93085.88;;;16.82;58.22
20037;BME280;10179;42.640;23.312;2023-05-17T02:48:10;93121.78;;;17.04;58.59
20037;BME280;10179;42.640;23.312;2023-05-17T02:50:35;93027.31;;;16.34;58.58
20037;BME280;10179;42.640;23.312;2023-05-17T02:53:00;93087.47;;;16.73;58.65
20037;BME280;10179;42.640;23.312;2023-05-17T02:55:26;93070.06;;;16.62;58.39
20037;BME280;10179;42.640;23.312;2023-05-17T02:57:51;93102.38;;;16.69;58.00
20037;BME280;10179;42.640;23.312;2023-05-17T03:00:17;93142.88;;;16.85;58.57
20037;BME280;10179;42.640;23.312;2023-05-17T03:02:42;93146.63;;;16.79;58.45
20037;BME280;10179;42.640;23.312;2023-05-17T03:05:08;93145.03;;;16.73;58.66
20037;BME280;10179;42.640;23.312;2023-05-17T03:07:34;93146.38;;;16.70;58.95
20037;BME280;10179;42.640;23.312;2023-05-17T03:09:59;93158.34;;;16.67;58.78
20037;BME280;10179;42.640;23.312;2023-05-17T03:12:24;93155.44;;;16.64;58.57
20037;BME280;10179;42.640;23.312;2023-05-17T03:14:50;93162.31;;;16.60;59.08
20037;BME280;10179;42.640;23.312;2023-05-17T03:17:15;93164.22;;;16.54;59.16
20037;BME280;10179;42.640;23.312;2023-05-17T03:19:40;93137.03;;;16.28;59.45
20037;BME280;10179;42.640;23.312;2023-05-17T03:22:06;93018.69;;;15.54;59.61
20037;BME280;10179;42.640;23.312;2023-05-17T03:24:31;93061.25;;;15.78;59.31
20037;BME280;10179;42.640;23.312;2023-05-17T03:26:57;93175.09;;;16.53;59.62
20037;BME280;10179;42.640;23.312;2023-05-17T03:29:22;93164.75;;;16.56;59.73
20037;BME280;10179;42.640;23.312;2023-05-17T03:31:47;93176.13;;;16.62;59.62
20037;BME280;10179;42.640;23.312;2023-05-17T03:34:13;93169.72;;;16.68;59.43
20037;BME280;10179;42.640;23.312;2023-05-17T03:36:38;93164.38;;;16.73;59.67
20037;BME280;10179;42.640;23.312;2023-05-17T03:39:04;93012.81;;;15.77;59.46
20037;BME280;10179;42.640;23.312;2023-05-17T03:41:30;93168.34;;;16.81;59.24
20037;BME280;10179;42.640;23.312;2023-05-17T03:43:56;93169.69;;;16.78;59.33
20037;BME280;10179;42.640;23.312;2023-05-17T03:46:21;93111.28;;;16.39;59.44
20037;BME280;10179;42.640;23.312;2023-05-17T03:48:47;93166.22;;;16.78;59.26
20037;BME280;10179;42.640;23.312;2023-05-17T03:51:12;93161.72;;;16.73;58.88
20037;BME280;10179;42.640;23.312;2023-05-17T03:53:38;93163.34;;;16.74;59.10
20037;BME280;10179;42.640;23.312;2023-05-17T03:56:07;93163.34;;;16.74;59.08
20037;BME280;10179;42.640;23.312;2023-05-17T03:58:33;93169.19;;;16.71;59.18
20037;BME280;10179;42.640;23.312;2023-05-17T04:00:58;93169.19;;;16.71;59.51
20037;BME280;10179;42.640;23.312;2023-05-17T04:03:24;93123.25;;;16.36;59.55
20037;BME280;10179;42.640;23.312;2023-05-17T04:05:49;93169.16;;;16.76;59.57
20037;BME280;10179;42.640;23.312;2023-05-17T04:08:15;93172.31;;;16.83;59.74
20037;BME280;10179;42.640;23.312;2023-05-17T04:10:40;93126.75;;;16.71;59.59
20037;BME280;10179;42.640;23.312;2023-05-17T04:13:07;93146.81;;;16.87;59.36
20037;BME280;10179;42.640;23.312;2023-05-17T04:15:33;93133.78;;;16.91;59.60
20037;BME280;10179;42.640;23.312;2023-05-17T04:17:59;93159.91;;;17.13;59.56
20037;BME280;10179;42.640;23.312;2023-05-17T04:20:24;93068.56;;;16.51;59.83
20037;BME280;10179;42.640;23.312;2023-05-17T04:22:49;93022.41;;;16.52;59.39
20037;BME280;10179;42.640;23.312;2023-05-17T04:25:15;93165.34;;;17.61;59.53
20037;BME280;10179;42.640;23.312;2023-05-17T04:27:41;93070.44;;;17.18;58.74
20037;BME280;10179;42.640;23.312;2023-05-17T04:30:07;93158.22;;;17.85;58.01
20037;BME280;10179;42.640;23.312;2023-05-17T04:32:32;93161.34;;;17.93;57.61
20037;BME280;10179;42.640;23.312;2023-05-17T04:34:59;93163.31;;;18.06;57.69
20037;BME280;10179;42.640;23.312;2023-05-17T04:37:24;93162.56;;;18.24;57.37
20037;BME280;10179;42.640;23.312;2023-05-17T04:39:49;93130.25;;;18.17;57.09
20037;BME280;10179;42.640;23.312;2023-05-17T04:42:17;93070.44;;;17.96;56.89
20037;BME280;10179;42.640;23.312;2023-05-17T04:44:42;93158.22;;;18.76;56.09
20037;BME280;10179;42.640;23.312;2023-05-17T04:47:08;93170.16;;;18.98;55.62
20037;BME280;10179;42.640;23.312;2023-05-17T04:49:33;93059.06;;;18.52;54.83
20037;BME280;10179;42.640;23.312;2023-05-17T04:51:58;93159.19;;;19.37;54.16
20037;BME280;10179;42.640;23.312;2023-05-17T04:54:25;93055.88;;;18.88;52.88
20037;BME280;10179;42.640;23.312;2023-05-17T04:56:50;93017.53;;;18.75;52.63
20037;BME280;10179;42.640;23.312;2023-05-17T04:59:15;93048.69;;;18.88;51.93
20037;BME280;10179;42.640;23.312;2023-05-17T05:01:41;93171.66;;;19.74;51.67
20037;BME280;10179;42.640;23.312;2023-05-17T05:04:06;93166.84;;;19.76;51.22
20037;BME280;10179;42.640;23.312;2023-05-17T05:06:32;93174.44;;;19.83;51.08
20037;BME280;10179;42.640;23.312;2023-05-17T05:09:02;93049.16;;;19.09;51.16
20037;BME280;10179;42.640;23.312;2023-05-17T05:11:28;93172.88;;;19.96;50.61
20037;BME280;10179;42.640;23.312;2023-05-17T05:13:53;93144.41;;;19.77;50.83
20037;BME280;10179;42.640;23.312;2023-05-17T05:16:19;92808.78;;;17.74;50.68
20037;BME280;10179;42.640;23.312;2023-05-17T05:18:45;93036.78;;;19.32;50.65
20037;BME280;10179;42.640;23.312;2023-05-17T05:21:10;93115.13;;;20.05;50.16
20037;BME280;10179;42.640;23.312;2023-05-17T05:23:36;93157.47;;;20.48;50.08
20037;BME280;10179;42.640;23.312;2023-05-17T05:26:01;93145.81;;;20.71;49.61
20037;BME280;10179;42.640;23.312;2023-05-17T05:28:26;93140.81;;;20.92;48.45
20037;BME280;10179;42.640;23.312;2023-05-17T05:30:58;93123.00;;;20.88;48.11
20037;BME280;10179;42.640;23.312;2023-05-17T05:33:25;93181.50;;;21.48;47.31
20037;BME280;10179;42.640;23.312;2023-05-17T05:35:50;93178.63;;;21.67;46.73
20037;BME280;10179;42.640;23.312;2023-05-17T05:38:16;93149.06;;;21.63;46.20
20037;BME280;10179;42.640;23.312;2023-05-17T05:40:41;93103.03;;;21.44;45.74
20037;BME280;10179;42.640;23.312;2023-05-17T05:43:06;93190.25;;;21.93;45.13
20037;BME280;10179;42.640;23.312;2023-05-17T05:45:32;93048.59;;;20.86;45.12
20037;BME280;10179;42.640;23.312;2023-05-17T05:47:57;93210.00;;;22.06;44.58
20037;BME280;10179;42.640;23.312;2023-05-17T05:50:23;93190.53;;;22.14;44.53
20037;BME280;10179;42.640;23.312;2023-05-17T05:52:48;93188.53;;;22.20;44.63
20037;BME280;10179;42.640;23.312;2023-05-17T05:55:14;93067.22;;;21.45;44.08
20037;BME280;10179;42.640;23.312;2023-05-17T05:57:39;93182.03;;;22.12;44.23
20037;BME280;10179;42.640;23.312;2023-05-17T06:00:05;93174.50;;;22.14;44.42
20037;BME280;10179;42.640;23.312;2023-05-17T06:02:31;93175.09;;;22.11;44.11
20037;BME280;10179;42.640;23.312;2023-05-17T06:04:56;93204.66;;;22.37;43.85
20037;BME280;10179;42.640;23.312;2023-05-17T06:07:21;93211.13;;;22.45;43.88
20037;BME280;10179;42.640;23.312;2023-05-17T06:09:47;93100.53;;;21.79;43.56
20037;BME280;10179;42.640;23.312;2023-05-17T06:12:12;93194.13;;;22.41;43.55
20037;BME280;10179;42.640;23.312;2023-05-17T06:14:38;93202.16;;;22.41;43.58
20037;BME280;10179;42.640;23.312;2023-05-17T06:17:03;93146.50;;;22.21;43.63
20037;BME280;10179;42.640;23.312;2023-05-17T06:19:29;93206.00;;;22.57;44.44
20037;BME280;10179;42.640;23.312;2023-05-17T06:21:54;93209.47;;;22.58;43.70
20037;BME280;10179;42.640;23.312;2023-05-17T06:24:19;93130.03;;;21.96;43.45
20037;BME280;10179;42.640;23.312;2023-05-17T06:26:45;93111.03;;;21.66;44.36
20037;BME280;10179;42.640;23.312;2023-05-17T06:29:11;93182.03;;;22.12;44.52
20037;BME280;10179;42.640;23.312;2023-05-17T06:31:37;93172.34;;;21.94;44.58
20037;BME280;10179;42.640;23.312;2023-05-17T06:34:02;93214.97;;;22.22;44.86
20037;BME280;10179;42.640;23.312;2023-05-17T06:36:27;93219.25;;;22.23;44.76
20037;BME280;10179;42.640;23.312;2023-05-17T06:38:53;93098.97;;;21.47;44.45
20037;BME280;10179;42.640;23.312;2023-05-17T06:41:18;93027.53;;;21.07;44.90
20037;BME280;10179;42.640;23.312;2023-05-17T06:43:44;93219.84;;;22.20;44.74
20037;BME280;10179;42.640;23.312;2023-05-17T06:46:10;93184.47;;;22.00;45.54
20037;BME280;10179;42.640;23.312;2023-05-17T06:48:35;93180.38;;;21.94;45.43
20037;BME280;10179;42.640;23.312;2023-05-17T06:51:01;93210.44;;;22.22;46.12
20037;BME280;10179;42.640;23.312;2023-05-17T06:53:26;93203.44;;;22.44;46.06
20037;BME280;10179;42.640;23.312;2023-05-17T06:55:52;93137.50;;;22.08;45.13
20037;BME280;10179;42.640;23.312;2023-05-17T06:58:17;93203.66;;;22.65;44.70
20037;BME280;10179;42.640;23.312;2023-05-17T07:00:42;93186.66;;;22.60;45.20
20037;BME280;10179;42.640;23.312;2023-05-17T07:03:08;93084.72;;;22.00;45.11
20037;BME280;10179;42.640;23.312;2023-05-17T07:05:34;93169.72;;;22.34;44.34
20037;BME280;10179;42.640;23.312;2023-05-17T07:08:00;93181.41;;;22.55;44.68
20037;BME280;10179;42.640;23.312;2023-05-17T07:10:25;93220.25;;;22.84;44.92
20037;BME280;10179;42.640;23.312;2023-05-17T07:12:51;93232.22;;;22.86;44.22
20037;BME280;10179;42.640;23.312;2023-05-17T07:15:16;93201.78;;;22.74;44.24
20037;BME280;10179;42.640;23.312;2023-05-17T07:17:42;93198.47;;;22.68;44.47
20037;BME280;10179;42.640;23.312;2023-05-17T07:20:08;93221.13;;;22.71;45.04
20037;BME280;10179;42.640;23.312;2023-05-17T07:22:35;93232.50;;;22.76;45.30
20037;BME280;10179;42.640;23.312;2023-05-17T07:25:00;93192.56;;;22.49;45.05
20037;BME280;10179;42.640;23.312;2023-05-17T07:27:26;93192.91;;;22.47;45.45
20037;BME280;10179;42.640;23.312;2023-05-17T07:29:51;93237.50;;;22.60;45.83
20037;BME280;10179;42.640;23.312;2023-05-17T07:32:17;93196.38;;;22.17;45.91
20037;BME280;10179;42.640;23.312;2023-05-17T07:34:42;93233.59;;;22.35;46.11
20037;BME280;10179;42.640;23.312;2023-05-17T07:37:08;93178.94;;;21.97;46.39
20037;BME280;10179;42.640;23.312;2023-05-17T07:39:33;93250.31;;;22.32;46.68
20037;BME280;10179;42.640;23.312;2023-05-17T07:41:58;93112.50;;;21.50;46.40
20037;BME280;10179;42.640;23.312;2023-05-17T07:44:24;93183.50;;;21.96;46.58
20037;BME280;10179;42.640;23.312;2023-05-17T07:46:49;93244.38;;;21.32;47.12
20037;BME280;10179;42.640;23.312;2023-05-17T07:49:15;93235.06;;;22.42;46.79
20037;BME280;10179;42.640;23.312;2023-05-17T07:51:40;93225.34;;;22.54;46.45
20037;BME280;10179;42.640;23.312;2023-05-17T07:54:05;93227.88;;;22.59;45.93
20037;BME280;10179;42.640;23.312;2023-05-17T07:56:31;93238.94;;;22.67;45.41
20037;BME280;10179;42.640;23.312;2023-05-17T07:58:58;93216.38;;;22.59;45.10
20037;BME280;10179;42.640;23.312;2023-05-17T08:01:23;93229.16;;;22.71;45.49
20037;BME280;10179;42.640;23.312;2023-05-17T08:03:49;93228.44;;;22.79;44.94
20037;BME280;10179;42.640;23.312;2023-05-17T08:06:15;93118.97;;;22.20;44.64
20037;BME280;10179;42.640;23.312;2023-05-17T08:08:41;93218.22;;;22.90;44.66
20037;BME280;10179;42.640;23.312;2023-05-17T08:11:07;93036.34;;;21.70;44.88
20037;BME280;10179;42.640;23.312;2023-05-17T08:13:33;93217.63;;;22.93;45.07
20037;BME280;10179;42.640;23.312;2023-05-17T08:15:58;93244.44;;;23.19;44.61
20037;BME280;10179;42.640;23.312;2023-05-17T08:18:30;93229.94;;;23.20;44.07
20037;BME280;10179;42.640;23.312;2023-05-17T08:20:55;92769.13;;;20.24;44.33
20037;BME280;10179;42.640;23.312;2023-05-17T08:23:21;93145.56;;;22.74;44.58
20037;BME280;10179;42.640;23.312;2023-05-17T08:25:46;93096.53;;;22.47;44.72
20037;BME280;10179;42.640;23.312;2023-05-17T08:28:12;93174.16;;;23.04;44.55
20037;BME280;10179;42.640;23.312;2023-05-17T08:30:37;92970.16;;;21.76;44.15
20037;BME280;10179;42.640;23.312;2023-05-17T08:33:03;93212.78;;;23.38;44.37
20037;BME280;10179;42.640;23.312;2023-05-17T08:35:28;93212.31;;;23.36;43.88
20037;BME280;10179;42.640;23.312;2023-05-17T08:37:55;93111.84;;;22.73;43.95
20037;BME280;10179;42.640;23.312;2023-05-17T08:40:21;93224.28;;;23.47;43.35
20037;BME280;10179;42.640;23.312;2023-05-17T08:42:47;93239.91;;;23.45;43.68
20037;BME280;10179;42.640;23.312;2023-05-17T08:45:14;93230.28;;;23.44;43.39
20037;BME280;10179;42.640;23.312;2023-05-17T08:47:42;93218.28;;;23.50;43.43
20037;BME280;10179;42.640;23.312;2023-05-17T08:50:08;93168.00;;;23.21;43.56
20037;BME280;10179;42.640;23.312;2023-05-17T08:52:34;93217.03;;;23.65;43.17
20037;BME280;10179;42.640;23.312;2023-05-17T08:55:01;93227.63;;;23.70;43.14
20037;BME280;10179;42.640;23.312;2023-05-17T08:57:30;93218.91;;;23.65;43.29
20037;BME280;10179;42.640;23.312;2023-05-17T08:59:57;93226.97;;;23.65;42.79
20037;BME280;10179;42.640;23.312;2023-05-17T09:02:25;93218.47;;;23.63;42.95
20037;BME280;10179;42.640;23.312;2023-05-17T09:04:52;93203.16;;;23.54;43.71
20037;BME280;10179;42.640;23.312;2023-05-17T09:07:21;93228.38;;;23.62;43.05
20037;BME280;10179;42.640;23.312;2023-05-17T09:09:50;93218.31;;;23.68;42.87
20037;BME280;10179;42.640;23.312;2023-05-17T09:12:17;93185.81;;;23.43;42.83
20037;BME280;10179;42.640;23.312;2023-05-17T09:14:42;93118.06;;;22.99;43.06
20037;BME280;10179;42.640;23.312;2023-05-17T09:17:15;93151.47;;;23.28;42.71
20037;BME280;10179;42.640;23.312;2023-05-17T09:19:45;93208.81;;;23.62;43.04
20037;BME280;10179;42.640;23.312;2023-05-17T09:22:17;93202.22;;;23.50;42.94
20037;BME280;10179;42.640;23.312;2023-05-17T09:24:43;93213.25;;;23.57;42.89
20037;BME280;10179;42.640;23.312;2023-05-17T09:27:13;93202.06;;;23.47;43.08
20037;BME280;10179;42.640;23.312;2023-05-17T09:29:39;93176.19;;;23.33;43.44
20037;BME280;10179;42.640;23.312;2023-05-17T09:32:15;93229.66;;;23.65;43.16
20037;BME280;10179;42.640;23.312;2023-05-17T09:34:41;93214.50;;;23.60;42.92
20037;BME280;10179;42.640;23.312;2023-05-17T09:37:15;93216.41;;;23.60;42.96
20037;BME280;10179;42.640;23.312;2023-05-17T09:39:42;93185.50;;;23.36;43.18
20037;BME280;10179;42.640;23.312;2023-05-17T09:42:09;93216.72;;;23.49;43.61
20037;BME280;10179;42.640;23.312;2023-05-17T09:44:54;93222.88;;;23.50;43.94
20037;BME280;10179;42.640;23.312;2023-05-17T09:47:25;93226.19;;;23.38;44.15
20037;BME280;10179;42.640;23.312;2023-05-17T09:49:51;93151.06;;;22.77;44.14
20037;BME280;10179;42.640;23.312;2023-05-17T09:52:19;93128.03;;;22.50;44.20
20037;BME280;10179;42.640;23.312;2023-05-17T09:54:55;93222.53;;;23.08;44.40
20037;BME280;10179;42.640;23.312;2023-05-17T09:57:22;93222.97;;;23.01;45.08
20037;BME280;10179;42.640;23.312;2023-05-17T09:59:49;93204.66;;;22.86;44.54
20037;BME280;10179;42.640;23.312;2023-05-17T10:02:20;93217.56;;;22.84;44.85
20037;BME280;10179;42.640;23.312;2023-05-17T10:04:51;93207.47;;;22.81;45.22
20037;BME280;10179;42.640;23.312;2023-05-17T10:07:18;93205.56;;;22.73;45.60
20037;BME280;10179;42.640;23.312;2023-05-17T10:09:46;93183.66;;;22.62;45.31
20037;BME280;10179;42.640;23.312;2023-05-17T10:12:16;93205.56;;;22.73;45.78
20037;BME280;10179;42.640;23.312;2023-05-17T10:14:42;93196.88;;;22.67;45.45
20037;BME280;10179;42.640;23.312;2023-05-17T10:17:09;93187.44;;;22.61;45.16
20037;BME280;10179;42.640;23.312;2023-05-17T10:19:36;93187.88;;;22.54;45.72
20037;BME280;10179;42.640;23.312;2023-05-17T10:22:02;93181.09;;;22.48;45.65
20037;BME280;10179;42.640;23.312;2023-05-17T10:24:29;93176.50;;;22.40;45.84
20037;BME280;10179;42.640;23.312;2023-05-17T10:26:56;93080.88;;;21.75;45.76
20037;BME280;10179;42.640;23.312;2023-05-17T10:29:22;93156.44;;;22.29;45.60
20037;BME280;10179;42.640;23.312;2023-05-17T10:31:49;93136.06;;;22.10;45.69
20037;BME280;10179;42.640;23.312;2023-05-17T10:34:15;93119.31;;;21.96;45.29
20037;BME280;10179;42.640;23.312;2023-05-17T10:36:45;93048.38;;;21.50;45.63
20037;BME280;10179;42.640;23.312;2023-05-17T10:39:11;93132.22;;;21.94;46.11
20037;BME280;10179;42.640;23.312;2023-05-17T10:41:40;93089.03;;;21.70;46.27
20037;BME280;10179;42.640;23.312;2023-05-17T10:44:07;93074.31;;;21.58;46.42
20037;BME280;10179;42.640;23.312;2023-05-17T10:46:35;92970.66;;;21.07;46.83
20037;BME280;10179;42.640;23.312;2023-05-17T10:49:01;93058.34;;;21.67;46.25
20037;BME280;10179;42.640;23.312;2023-05-17T10:51:35;93071.47;;;21.86;46.43
20037;BME280;10179;42.640;23.312;2023-05-17T10:56:31;93027.59;;;21.47;46.68
20037;BME280;10179;42.640;23.312;2023-05-17T10:59:24;93042.81;;;21.78;46.54
20037;BME280;10179;42.640;23.312;2023-05-17T11:04:31;92931.34;;;20.98;46.77
20037;BME280;10179;42.640;23.312;2023-05-17T11:09:50;93068.34;;;21.84;47.01
20037;BME280;10179;42.640;23.312;2023-05-17T11:14:55;93073.50;;;21.80;47.15
20037;BME280;10179;42.640;23.312;2023-05-17T11:17:24;93070.69;;;21.85;46.65
20037;BME280;10179;42.640;23.312;2023-05-17T11:22:22;93051.09;;;21.59;46.79
20037;BME280;10179;42.640;23.312;2023-05-17T11:24:50;93101.72;;;21.95;47.00
20037;BME280;10179;42.640;23.312;2023-05-17T11:27:21;93092.06;;;21.85;47.18
20037;BME280;10179;42.640;23.312;2023-05-17T11:29:52;93110.19;;;21.97;47.59
20037;BME280;10179;42.640;23.312;2023-05-17T11:32:26;93093.94;;;21.76;47.62
20037;BME280;10179;42.640;23.312;2023-05-17T11:34:52;93152.63;;;21.90;47.85
20037;BME280;10179;42.640;23.312;2023-05-17T11:37:24;93128.38;;;21.78;47.64
20037;BME280;10179;42.640;23.312;2023-05-17T11:40:05;93150.19;;;21.71;48.03
20037;BME280;10179;42.640;23.312;2023-05-17T11:42:33;93148.88;;;21.60;47.94
20037;BME280;10179;42.640;23.312;2023-05-17T11:45:01;93044.88;;;20.96;48.70
20037;BME280;10179;42.640;23.312;2023-05-17T11:47:27;93169.34;;;21.64;48.83
20037;BME280;10179;42.640;23.312;2023-05-17T11:49:54;93171.03;;;21.60;49.33
20037;BME280;10179;42.640;23.312;2023-05-17T11:52:20;93157.00;;;21.55;49.80
20037;BME280;10179;42.640;23.312;2023-05-17T11:54:48;93166.44;;;21.52;50.17
20037;BME280;10179;42.640;23.312;2023-05-17T11:57:14;93156.03;;;21.51;50.31
20037;BME280;10179;42.640;23.312;2023-05-17T11:59:42;92704.97;;;18.58;49.90
20037;BME280;10179;42.640;23.312;2023-05-17T12:02:08;93164.38;;;21.49;48.78
20037;BME280;10179;42.640;23.312;2023-05-17T12:04:35;93171.88;;;21.47;48.59
20037;BME280;10179;42.640;23.312;2023-05-17T12:07:05;93162.91;;;21.43;47.64
20037;BME280;10179;42.640;23.312;2023-05-17T12:09:32;93168.06;;;21.39;47.67
20037;BME280;10179;42.640;23.312;2023-05-17T12:12:01;93014.00;;;20.45;47.66
20037;BME280;10179;42.640;23.312;2023-05-17T12:14:28;93174.19;;;21.40;47.29
20037;BME280;10179;42.640;23.312;2023-05-17T12:16:55;93143.72;;;21.05;46.84
20037;BME280;10179;42.640;23.312;2023-05-17T12:19:22;93163.03;;;21.38;47.05
20037;BME280;10179;42.640;23.312;2023-05-17T12:21:49;93150.16;;;21.40;46.97
20037;BME280;10179;42.640;23.312;2023-05-17T12:24:15;93151.91;;;21.44;47.17
20037;BME280;10179;42.640;23.312;2023-05-17T12:26:42;93065.88;;;20.89;47.33
20037;BME280;10179;42.640;23.312;2023-05-17T12:29:08;93089.91;;;21.11;47.00
20037;BME280;10179;42.640;23.312;2023-05-17T12:31:40;92955.19;;;20.27;46.41
20037;BME280;10179;42.640;23.312;2023-05-17T12:34:07;93149.31;;;21.53;46.19
20037;BME280;10179;42.640;23.312;2023-05-17T12:36:34;93148.34;;;21.49;46.58
20037;BME280;10179;42.640;23.312;2023-05-17T12:39:01;93138.13;;;21.51;47.02
20037;BME280;10179;42.640;23.312;2023-05-17T12:41:29;93140.19;;;21.54;46.94
20037;BME280;10179;42.640;23.312;2023-05-17T12:43:54;93150.09;;;21.54;46.86
20037;BME280;10179;42.640;23.312;2023-05-17T12:46:22;93123.44;;;21.40;46.70
20037;BME280;10179;42.640;23.312;2023-05-17T12:48:51;93153.97;;;21.48;46.92
20037;BME280;10179;42.640;23.312;2023-05-17T12:51:18;93133.19;;;21.44;46.75
20037;BME280;10179;42.640;23.312;2023-05-17T12:53:52;93001.44;;;20.59;46.89
20037;BME280;10179;42.640;23.312;2023-05-17T12:56:22;93099.19;;;21.14;46.63
20037;BME280;10179;42.640;23.312;2023-05-17T13:01:46;93030.56;;;20.69;47.21
20037;BME280;10179;42.640;23.312;2023-05-17T13:04:13;93134.31;;;21.43;47.49
20037;BME280;10179;42.640;23.312;2023-05-17T13:09:18;93139.78;;;21.38;48.73
20037;BME280;10179;42.640;23.312;2023-05-17T13:14:42;93118.88;;;21.40;48.78